1 października 2022

Czas Kod Pogoda Temp. Widoczność Sufit Wiatr METAR/SPECI
04:00
V
5 °C 10 km+ 4.200 ft 090° 090° 3 kt METAR LFLW 010200Z AUTO 09003KT 9999 BKN042 BKN084 OVC150 05/05 Q1020
03:30
V
4 °C 10 km+ 4.300 ft 100° 100° 3 kt METAR LFLW 010130Z AUTO 10003KT 9999 FEW027 BKN043 04/04 Q1019
03:00
V
4 °C 10 km+ - 100° 100° 3 kt METAR LFLW 010100Z AUTO 10003KT CAVOK 04/04 Q1019
02:30
V
5 °C 10 km+ - 110° 110° 3 kt METAR LFLW 010030Z AUTO 11003KT CAVOK 05/04 Q1019
02:00
V
4 °C 10 km+ - 100° 100° 3 kt METAR LFLW 010000Z AUTO 10003KT CAVOK 04/04 Q1019
01:30
V
4 °C 10 km+ - 100° 100° 2 kt METAR LFLW 302330Z AUTO 10002KT CAVOK 04/04 Q1019
01:00
V
4 °C 10 km+ - 100° 100° 3 kt METAR LFLW 302300Z AUTO 10003KT CAVOK 04/04 Q1019
00:30
V
5 °C 10 km+ - 110° 110° 3 kt METAR LFLW 302230Z AUTO 11003KT 9999 FEW040 05/04 Q1019
00:00
V
5 °C 10 km+ - 100° 100° 3 kt METAR LFLW 302200Z AUTO 10003KT 9999 SCT040 05/05 Q1019

30 września 2022

Czas Kod Pogoda Temp. Widoczność Sufit Wiatr METAR/SPECI
23:30
V
6 °C 10 km+ - 080° 080° 2 kt METAR LFLW 302130Z AUTO 08002KT CAVOK 06/04 Q1018
23:00
V
6 °C 10 km+ - Var Var 1 kt METAR LFLW 302100Z AUTO VRB01KT CAVOK 06/04 Q1018
22:30
V
7 °C 10 km+ - Var 000° 0 kt METAR LFLW 302030Z AUTO 00000KT CAVOK 07/05 Q1018
22:00
V
8 °C 10 km+ - Var Var 2 kt METAR LFLW 302000Z AUTO VRB02KT 9999 SCT040 08/05 Q1018
21:30
V
8 °C 10 km+ - 260° 260° 1 kt METAR LFLW 301930Z AUTO 26001KT 9999 FEW038 08/05 Q1018
21:00
V
9 °C 10 km+ - Var Var 3 kt METAR LFLW 301900Z AUTO VRB03KT CAVOK 09/05 Q1017
20:30
V
10 °C 10 km+ - 260° 260° 3 kt METAR LFLW 301830Z AUTO 26003KT CAVOK 10/05 Q1017
20:00
V
11 °C 10 km+ 5.800 ft 270° 270° 3 kt METAR LFLW 301800Z AUTO 27003KT 9999 FEW048 BKN058 11/06 Q1016
19:30
V
12 °C 10 km+ - 290° 290° 4 kt METAR LFLW 301730Z AUTO 29004KT 250V320 9999 FEW045 12/05 Q1016
19:00
V
14 °C 10 km+ 3.700 ft 300° 300° 9 kt METAR LFLW 301700Z AUTO 30009KT 260V330 9999 BKN037 OVC046 14/05 Q1016 NOSIG
18:30
V
13 °C 10 km+ 5.800 ft 290° 290° 6 kt METAR LFLW 301630Z AUTO 29006KT 250V340 9999 FEW049 BKN058 13/06 Q1015 NOSIG
18:00
V
13 °C 10 km+ - 290° 290° 9 kt METAR LFLW 301600Z AUTO 29009KT 250V330 9999 FEW036 SCT058 13/06 Q1015 NOSIG
17:30
V
14 °C 10 km+ 4.900 ft 290° 290° 8 kt METAR LFLW 301530Z AUTO 29008KT 250V330 9999 FEW039 BKN049 BKN056 14/06 Q1014 NOSIG
17:00
V
14 °C 10 km+ 3.400 ft 300° 300° 8 kt METAR LFLW 301500Z AUTO 30008KT 250V340 9999 BKN034 BKN040 OVC048 14/06 Q1014 NOSIG
16:30
V
13 °C 10 km+ 5.200 ft 300° 300° 9 kt METAR LFLW 301430Z AUTO 30009KT 260V330 9999 SCT038 BKN052 13/05 Q1014 NOSIG
16:00
V
15 °C 10 km+ - 330° 330° 9 kt METAR LFLW 301400Z AUTO 33009KT 260V360 9999 FEW046 SCT054 15/04 Q1014 NOSIG
15:30
V
15 °C 10 km+ - 320° 320° 10 kt METAR LFLW 301330Z AUTO 32010KT 270V010 9999 SCT040 SCT048 15/05 Q1014 NOSIG
15:00
V
14 °C 10 km+ - 320° 320° 8 kt METAR LFLW 301300Z AUTO 32008KT 260V010 9999 FEW036 SCT042 14/05 Q1014 NOSIG
14:30
V
14 °C 10 km+ 5.000 ft 320° 320° 9 kt METAR LFLW 301230Z AUTO 32009KT 280V360 9999 SCT034 BKN050 14/06 Q1014 NOSIG
14:00
V
13 °C 10 km+ 4.900 ft 340° 340° 9 kt METAR LFLW 301200Z AUTO 34009KT 9999 FEW032 BKN049 13/06 Q1014 NOSIG
13:30
V
13 °C 10 km+ - 300° 300° 9 kt METAR LFLW 301130Z AUTO 30009KT 240V350 9999 FEW029 SCT042 13/06 Q1013 NOSIG
13:00
V
13 °C 10 km+ - 300° 300° 10 kt METAR LFLW 301100Z AUTO 30010KT 270V340 CAVOK 13/06 Q1013 NOSIG
12:30
V
12 °C 10 km+ - 310° 310° 6 kt METAR LFLW 301030Z AUTO 31006KT 230V360 9999 FEW025 12/06 Q1013 NOSIG
12:00
V
10 °C 10 km+ - 290° 290° 4 kt METAR LFLW 301000Z AUTO 29004KT 210V360 9999 SCT011 10/07 Q1013 NOSIG
11:30
I
9 °C 10 km+ 600 ft 280° 280° 4 kt METAR LFLW 300930Z AUTO 28004KT 210V340 9999 BKN006 09/08 Q1013 BECMG SCT030
11:00
I
7 °C 10 km+ 500 ft Var Var 3 kt METAR LFLW 300900Z AUTO VRB03KT 9999 OVC005 07/06 Q1013 BECMG SCT030
10:30
L
6 °C 10 km+ 200 ft 270° 270° 4 kt METAR LFLW 300830Z AUTO 27004KT 240V320 9999 OVC002 06/06 Q1012 BECMG FEW030
10:00
L
5 °C 450 m - Var Var 3 kt METAR LFLW 300800Z AUTO VRB03KT 0450 R15/1900U FG VV/// 05/05 Q1012 BECMG 9999 NSW FEW030
09:30
L
5 °C 300 m - Var Var 3 kt METAR LFLW 300730Z AUTO VRB03KT 0300 R15/0400N FG VV/// 05/05 Q1012 BECMG 9999 NSW FEW030
09:00
L
5 °C 300 m - Var Var 3 kt METAR LFLW 300700Z AUTO VRB03KT 0300 R15/0400N FG VV/// 05/05 Q1011 BECMG 9999 NSW FEW030
08:30
L
5 °C 500 m - Var Var 1 kt METAR LFLW 300630Z AUTO VRB01KT 0500 R15/0700D FG VV/// 05/05 Q1011 BECMG 9999 NSW FEW030
08:00
L
5 °C 500 m - Var Var 2 kt METAR LFLW 300600Z AUTO VRB02KT 0500 R15/0700D FG VV/// 05/05 Q1010 BECMG 9999 NSW FEW030
07:30
L
5 °C 550 m - Var Var 1 kt METAR LFLW 300530Z AUTO VRB01KT 0800 0550 R15/0700D FG VV/// 05/05 Q1010
07:00
L
6 °C 400 m - Var Var 2 kt METAR LFLW 300500Z AUTO VRB02KT 0450 0400 R15/0550N FG VV/// 06/06 Q1009
06:30
L
6 °C 650 m - Var Var 2 kt METAR LFLW 300430Z AUTO VRB02KT 0650 R15/0700D FG VV/// 06/06 Q1009
06:00
L
6 °C 500 m - Var Var 2 kt METAR LFLW 300400Z AUTO VRB02KT 0500 R15/0550N FG VV/// 06/06 Q1008
05:30
L
6 °C 500 m - Var Var 2 kt METAR LFLW 300330Z AUTO VRB02KT 0550 0500 R15/0650N FG VV/// 06/06 Q1008
05:00
L
6 °C 700 m - Var Var 1 kt METAR LFLW 300300Z AUTO VRB01KT 0800 0700 R15/0900D FG VV/// 06/06 Q1008
04:30
L
6 °C 900 m - Var Var 2 kt METAR LFLW 300230Z AUTO VRB02KT 1000 0900 R15/1400D BCFG VV/// 06/06 Q1008
04:00
L
6 °C 600 m - Var Var 2 kt METAR LFLW 300200Z AUTO VRB02KT 1100 0600 R15/1500N BCFG VV/// 06/06 Q1008
03:30
L
7 °C 600 m 200 ft Var 000° 0 kt METAR LFLW 300130Z AUTO 00000KT 0800 0600 R15/0650D FG BKN002 BKN200 07/06 Q1008
03:00
L
6 °C 10 km+ 300 ft Var Var 1 kt METAR LFLW 300100Z AUTO VRB01KT 9999 OVC003 06/06 Q1007
02:30
V
6 °C 8 km 20.000 ft Var Var 2 kt METAR LFLW 300030Z AUTO VRB02KT 8000 FEW004 OVC200 06/06 Q1007
02:00
V
7 °C 10 km+ - 340° 340° 3 kt METAR LFLW 300000Z AUTO 34003KT CAVOK 07/06 Q1007
01:30
V
7 °C 10 km+ - Var Var 1 kt METAR LFLW 292330Z AUTO VRB01KT CAVOK 07/07 Q1007
01:00
V
8 °C 10 km+ - Var 000° 0 kt METAR LFLW 292300Z AUTO 00000KT CAVOK 08/07 Q1007
00:30
V
8 °C 10 km+ - 300° 300° 2 kt METAR LFLW 292230Z AUTO 30002KT CAVOK 08/07 Q1007
00:00
V
9 °C 10 km+ - 330° 330° 3 kt METAR LFLW 292200Z AUTO 33003KT CAVOK 09/08 Q1007

29 września 2022

Czas Kod Pogoda Temp. Widoczność Sufit Wiatr METAR/SPECI
23:30
V
9 °C 10 km+ 6.800 ft Var Var 3 kt METAR LFLW 292130Z AUTO VRB03KT 9999 FEW043 BKN068 BKN160 09/08 Q1006
23:00
V
9 °C 10 km+ 5.600 ft Var Var 3 kt METAR LFLW 292100Z AUTO VRB03KT 9999 BKN056 OVC160 09/08 Q1006
22:30
V
10 °C 10 km+ 6.600 ft Var Var 3 kt METAR LFLW 292030Z AUTO VRB03KT 9999 FEW006 BKN066 BKN100 10/09 Q1006
22:00
V
10 °C 10 km+ 9.800 ft Var Var 2 kt METAR LFLW 292000Z AUTO VRB02KT 9999 FEW008 BKN098 OVC150 10/09 Q1005
21:30
V
10 °C 10 km+ 3.400 ft Var Var 3 kt METAR LFLW 291930Z AUTO VRB03KT 9999 BKN034 BKN040 BKN048 10/08 Q1005
21:00
V
10 °C 10 km+ 3.700 ft 270° 270° 2 kt METAR LFLW 291900Z AUTO 27002KT 9999 BKN037 BKN043 OVC092 10/09 Q1005
20:30
V
10 °C 10 km+ - 250° 250° 2 kt METAR LFLW 291830Z AUTO 25002KT CAVOK 10/09 Q1005
20:00
V
11 °C 10 km+ - Var Var 2 kt METAR LFLW 291800Z AUTO VRB02KT CAVOK 11/08 Q1004
19:30
V
11 °C 10 km+ - Var Var 3 kt METAR LFLW 291730Z AUTO VRB03KT CAVOK 11/08 Q1004
19:00
V
12 °C 10 km+ 6.600 ft Var Var 3 kt METAR LFLW 291700Z AUTO VRB03KT 9999 FEW046 OVC066 12/08 Q1004 TEMPO 3000 SHRA FEW018CB BKN020TCU
18:30
M
12 °C 10 km+ 2.700 ft Var Var 3 kt METAR LFLW 291630Z AUTO VRB03KT 9999 SCT022 BKN027 OVC064 12/08 Q1004 TEMPO 3000 SHRA FEW018CB BKN020TCU
18:00
M
12 °C 10 km+ 2.200 ft 340° 340° 3 kt METAR LFLW 291600Z AUTO 34003KT 270V030 9999 BKN022/// OVC072/// ///TCU 12/08 Q1003 TEMPO 3000 SHRA FEW018CB BKN020TCU
17:30
M
12 °C 10 km+ 2.200 ft 270° 270° 5 kt METAR LFLW 291530Z AUTO 27005KT 230V320 9999 BKN022 BKN028 BKN034 12/08 Q1003 TEMPO 3000 SHRA FEW018CB BKN020TCU
17:00
M
12 °C 10 km+ 2.900 ft 270° 270° 4 kt METAR LFLW 291500Z AUTO 27004KT 210V310 9999 SCT021 BKN029 BKN052 12/08 Q1003 TEMPO 3000 SHRA FEW018CB BKN020TCU
16:30
V
13 °C 10 km+ 6.600 ft 290° 290° 4 kt METAR LFLW 291430Z AUTO 29004KT 240V340 9999 FEW017 SCT029 BKN066 13/08 Q1003 TEMPO 3000 SHRA FEW018CB BKN020TCU
16:00
M
12 °C 10 km+ 1.300 ft 270° 270° 4 kt METAR LFLW 291400Z AUTO 27004KT 210V350 9999 BKN013/// BKN052/// BKN064/// ///TCU 12/09 Q1003 TEMPO 3000 SHRA FEW018CB BKN020TCU
15:30
V
11 °C 10 km+ 5.400 ft Var Var 3 kt METAR LFLW 291330Z AUTO VRB03KT 9999 FEW020/// SCT039/// OVC054/// ///TCU 11/09 Q1003 TEMPO 3000 SHRA FEW018CB BKN020TCU
15:00
V
10 °C 10 km+ 3.600 ft 320° 320° 4 kt METAR LFLW 291300Z AUTO 32004KT 250V010 9999 -RA FEW011/// SCT020/// BKN036/// ///TCU 10/09 Q1003 TEMPO 3000 SHRA FEW018CB BKN020TCU
14:30
M
11 °C 10 km+ 2.400 ft 350° 350° 4 kt METAR LFLW 291230Z AUTO 35004KT 310V020 9999 SCT013/// BKN024/// OVC030/// ///CB 11/09 Q1003 TEMPO 3000 SHRA
14:00
M
11 °C 10 km+ 2.200 ft Var Var 2 kt METAR LFLW 291200Z AUTO VRB02KT 9999 SCT012/// SCT017/// BKN022/// ///CB 11/09 Q1004 TEMPO 3000 SHRA
13:30
M
10 °C 6 km 1.600 ft 340° 340° 4 kt METAR LFLW 291130Z AUTO 34004KT 290V010 6000 -RA SCT008/// BKN016/// OVC029/// ///TCU 10/09 Q1004 TEMPO 3000 SHRA
13:00
I
10 °C 1,8 km 1.400 ft 340° 340° 4 kt METAR LFLW 291100Z AUTO 34004KT 290V020 8000 1800 -RADZ FEW008/// BKN014/// BKN019/// ///TCU 10/09 Q1004 TEMPO 3000 -RA BR BECMG FEW008 BKN018 BKN030
12:30
M
10 °C 6 km 2.300 ft 320° 320° 4 kt METAR LFLW 291030Z AUTO 32004KT 250V360 6000 RA SCT012/// BKN023/// OVC028/// ///TCU 10/09 Q1004 TEMPO 3000 -RA BR BECMG FEW008 BKN018 BKN030
12:00
M
11 °C 10 km+ 2.300 ft Var Var 2 kt METAR LFLW 291000Z AUTO VRB02KT 9999 FEW017/// BKN023/// OVC031/// ///TCU 11/07 Q1003 TEMPO 3000 -RA BR OVC012
11:30
M
10 °C 10 km+ 1.700 ft 290° 290° 4 kt METAR LFLW 290930Z AUTO 29004KT 240V330 9999 BKN017 BKN023 OVC037 10/07 Q1004 TEMPO 3000 -RA BR OVC012
11:00
M
11 °C 10 km+ 1.700 ft 290° 290° 4 kt METAR LFLW 290900Z AUTO 29004KT 240V350 9999 SCT012 BKN017 BKN026 11/08 Q1004 TEMPO 3000 -RA BR OVC012
10:30
M
10 °C 10 km+ 1.300 ft 280° 280° 4 kt METAR LFLW 290830Z AUTO 28004KT 230V320 9999 BKN013 BKN025 BKN041 10/07 Q1004 BECMG FEW008 BKN018 BKN030
10:00
M
10 °C 10 km+ 1.200 ft Var Var 2 kt METAR LFLW 290800Z AUTO VRB02KT 9999 BKN012 BKN017 OVC056 10/08 Q1004 TEMPO 3000 -RADZ BR BECMG FEW008 BKN018 BKN030
09:30
M
9 °C 10 km+ 2.400 ft Var Var 3 kt METAR LFLW 290730Z AUTO VRB03KT 9999 SCT010 SCT018 BKN024 09/08 Q1004 TEMPO 3000 -RADZ BR OVC004
09:00
M
9 °C 10 km+ 2.200 ft Var Var 3 kt METAR LFLW 290700Z AUTO VRB03KT 9999 FEW010 SCT017 BKN022 09/08 Q1004 TEMPO 3000 -RADZ BR OVC004
08:30
M
9 °C 10 km+ 1.900 ft 240° 240° 3 kt METAR LFLW 290630Z AUTO 24003KT 210V280 9999 FEW009 SCT013 BKN019 09/08 Q1004 TEMPO 3000 -RADZ BR OVC004
08:00
M
8 °C 10 km+ 2.600 ft 230° 230° 2 kt METAR LFLW 290600Z AUTO 23002KT 9999 FEW014 SCT020 BKN026 08/08 Q1004 TEMPO 3000 -RADZ BR OVC004
07:30
V
8 °C 10 km+ 3.100 ft Var Var 3 kt METAR LFLW 290530Z AUTO VRB03KT 9999 SCT009 SCT015 OVC031 08/08 Q1004 TEMPO 3000 -RADZ BR OVC004
07:00
I
9 °C 10 km+ 800 ft Var Var 3 kt METAR LFLW 290500Z AUTO VRB03KT 9999 -DZ BKN008 BKN014 OVC019 09/08 Q1004
06:30
M
9 °C 10 km+ 1.800 ft Var Var 3 kt METAR LFLW 290430Z AUTO VRB03KT 9999 SCT013 BKN018 BKN025 09/08 Q1004
06:00
M
9 °C 10 km+ 1.700 ft 270° 270° 4 kt METAR LFLW 290400Z AUTO 27004KT 240V300 9999 SCT011 BKN017 BKN028 09/07 Q1004
05:30
M
9 °C 10 km+ 2.800 ft 270° 270° 5 kt METAR LFLW 290330Z AUTO 27005KT 240V310 9999 SCT021 OVC028 09/08 Q1004
05:00
M
9 °C 10 km+ 2.900 ft 250° 250° 8 kt METAR LFLW 290300Z AUTO 25008KT 230V290 9999 FEW014 BKN029 OVC062 09/07 Q1004
04:30
M
9 °C 10 km+ 2.900 ft 260° 260° 6 kt METAR LFLW 290230Z AUTO 26006KT 230V300 9999 FEW013 BKN029 OVC064 09/08 Q1004
04:00
M
9 °C 10 km+ 2.000 ft 260° 260° 8 kt METAR LFLW 290200Z AUTO 26008KT 220V290 9999 FEW009 BKN020 BKN028 09/08 Q1004
03:30
M
10 °C 10 km+ 1.300 ft 260° 260° 7 kt METAR LFLW 290130Z AUTO 26007KT 210V300 9999 SCT009 BKN013 BKN023 10/09 Q1004
03:00
I
10 °C 10 km+ 600 ft 270° 270° 6 kt METAR LFLW 290100Z AUTO 27006KT 230V310 9999 BKN006 BKN013 OVC020 10/09 Q1004
02:30
I
10 °C 10 km+ 700 ft 300° 300° 5 kt METAR LFLW 290030Z AUTO 30005KT 250V330 9999 -RADZ BKN007 BKN012 OVC018 10/09 Q1004
02:00
I
10 °C 5 km 600 ft 300° 300° 7 kt METAR LFLW 290000Z AUTO 30007KT 260V350 5000 -RA BR BKN006 BKN012 OVC017 10/09 Q1004
01:30
M
11 °C 10 km+ 1.000 ft 280° 280° 5 kt METAR LFLW 282330Z AUTO 28005KT 240V310 9999 BKN010 OVC017 11/10 Q1004
01:00
M
11 °C 10 km+ 1.100 ft 280° 280° 6 kt METAR LFLW 282300Z AUTO 28006KT 250V320 9999 BKN011/// OVC062/// ///TCU 11/10 Q1005
00:30
I
11 °C 10 km+ 900 ft 270° 270° 7 kt METAR LFLW 282230Z AUTO 27007KT 220V300 9999 -DZ BKN009/// OVC015/// ///TCU 11/10 Q1005
00:00
M
11 °C 10 km+ 1.000 ft 260° 260° 7 kt METAR LFLW 282200Z AUTO 26007KT 230V300 9999 -RA BKN010/// BKN014/// BKN021/// ///TCU 11/10 Q1005

28 września 2022

Czas Kod Pogoda Temp. Widoczność Sufit Wiatr METAR/SPECI
23:30
M
11 °C 10 km+ 2.000 ft 260° 260° 8 kt METAR LFLW 282130Z AUTO 26008KT 220V290 9999 FEW012/// BKN020/// OVC040/// ///CB 11/10 Q1005
23:00
M
11 °C 10 km+ 1.000 ft 270° 270° 8 kt METAR LFLW 282100Z AUTO 27008KT 250V310 9999 BKN010/// OVC021/// ///TCU 11/10 Q1005
22:30
M
12 °C 10 km+ 1.100 ft 270° 270° 9 kt METAR LFLW 282030Z AUTO 27009KT 240V300 9999 -RADZ BKN011/// BKN020/// OVC025/// ///TCU 12/11 Q1005
22:00
M
12 °C 10 km+ 1.000 ft 260° 260° 13 - 24 kt METAR LFLW 282000Z AUTO 26013G24KT 9999 OVC010/// ///CB 12/11 Q1005
21:30
I
12 °C 10 km+ 900 ft 250° 250° 7 kt METAR LFLW 281930Z AUTO 25007KT 220V280 9999 -RA BKN009/// OVC015/// ///CB 12/11 Q1005
21:00
M
12 °C 10 km+ 1.000 ft 250° 250° 9 kt METAR LFLW 281900Z AUTO 25009KT 220V300 9999 BKN010/// OVC015/// ///CB 12/11 Q1005
20:30
M
12 °C 10 km+ 1.000 ft 270° 270° 7 kt METAR LFLW 281830Z AUTO 27007KT 240V310 9999 OVC010/// ///CB 12/11 Q1005
20:00
I
12 °C 10 km+ 900 ft 270° 270° 9 kt METAR LFLW 281800Z AUTO 27009KT 240V310 9999 BKN009 OVC013 12/11 Q1005
19:30
I
12 °C 10 km+ 900 ft 270° 270° 12 - 23 kt METAR LFLW 281730Z AUTO 27012G23KT 240V300 9999 -DZ BKN009/// OVC013/// ///CB 12/11 Q1005 TEMPO 1200 BKN004 SCT018CB
19:00
M
13 °C 9 km 1.400 ft 270° 270° 8 kt METAR LFLW 281700Z AUTO 27008KT 240V310 9000 -RA BKN014/// BKN021/// OVC038/// ///CB 13/11 Q1004 TEMPO 27015G25KT 1200 BKN004 SCT018CB
Starsze dane

My i osoby trzecie śledzimy twoje zachowanie w internecie na naszej stronie za pomocą plików cookie. Jeśli kontynuujesz, zakładamy, że zgadzasz się z naszą polityką plików cookie. Dowiedz się więcej